• Join FlightAware (Why Join?)
  • Login
  • US Flag 
02:31PM EDT


 

Airport Tracker/Info


-or-


 

Live Flight TrackerFlight Track Log ✈ N845AE ✈ 03-Jul-2013 ✈ KDFW - KHOU

Flight Track Log - Related Links

Times and Time Zones

All times are in EDT time to prevent confusion due to time zone crossing. See the N845AE flight status page for this flight to view local times or setup timezone preferences in your user account.

Time Position Orientation Groundspeed Altitude Reporting Facility
EDT Latitude Longitude Course Direction KTS MPH feet Rate Location/Type
11:15PM 32.8833 -97.0500 170° South 170 196 1,200  Level Dallas / Fort Worth TRACON
11:16PM 32.8167 -97.0500 180° South 225 259 3,400 2,220 Climbing Dallas / Fort Worth TRACON
11:17PM 32.6193 -96.8825 172° South  Level Estimated
11:18PM 32.5268 -96.8308 175° South  Level Estimated
11:18PM 32.6678 -97.0258 172° South 258 297 8,400  Level Fort Worth Center
11:19PM 32.4334 -96.8803 204° Southwest  Level FlightAware Approximate
11:19PM 32.5928 -97.0089 169° South 268 308 10,300  Level Fort Worth Center
11:20PM 32.3420 -96.8261 170° South  Level Estimated
11:20PM 32.5092 -96.9922 170° South 299 344 11,700  Level Fort Worth Center
11:21PM 32.4108 -96.9681 168° South 327 376 13,100 1,500 Climbing Fort Worth Center
11:22PM 32.3147 -96.9464 169° South 354 407 14,800 1,680 Climbing Fort Worth Center
11:23PM 32.2144 -96.9297 172° South 365 420 16,500 1,680 Climbing Fort Worth Center
11:24PM 32.1142 -96.9131 172° South 365 420 18,200 1,740 Climbing Fort Worth Center
11:25PM 32.0139 -96.8914 170° South 370 426 20,000 1,800 Climbing Fort Worth Center
11:26PM 31.9158 -96.8775 173° South 365 420 21,800 1,620 Climbing Fort Worth Center
11:27PM 31.8617 -96.8664 170° South 367 422 22,700 1,500 Climbing Houston Center
11:28PM 31.7578 -96.8478 171° South 371 427 24,300 1,500 Climbing Houston Center
11:29PM 31.6522 -96.8306 172° South 377 434 25,800 1,320 Climbing Houston Center
11:30PM 31.5439 -96.8128 172° South 386 444 27,000 540 Climbing Houston Center
11:31PM 31.4289 -96.7939 172° South 409 471 27,000  Level Houston Center
11:32PM 31.3089 -96.7747 172° South 426 490 27,000  Level Houston Center
11:33PM 31.1933 -96.7564 172° South 416 479 27,000  Level Houston Center
11:34PM 31.0783 -96.7600 182° South 407 468 27,000  Level Houston Center
11:35PM 30.9542 -96.7650 182° South 432 497 27,000  Level Houston Center
11:36PM 30.8267 -96.7669 181° South 446 513 27,000  Level Houston Center
11:37PM 30.6958 -96.7689 181° South 457 526 27,000  Level Houston Center
11:38PM 30.5686 -96.7725 181° South 453 521 27,000 -180 Level Houston Center
11:39PM 30.4386 -96.7778 182° South 459 528 26,700 -660 Descending Houston Center
11:40PM 30.3106 -96.7828 182° South 454 522 25,700 -1,080 Descending Houston Center
11:41PM 30.1828 -96.7625 172° South 458 527 24,600 -1,140 Descending Houston Center
11:42PM 30.0772 -96.6797 146° Southeast 453 521 23,500 -1,440 Descending Houston Center
11:43PM 29.9842 -96.5919 141° Southeast 450 518 21,900 -1,920 Descending Houston Center
11:43PM 29.9383 -96.4958 119° Southeast 438 504 20,300 -2,040 Descending Houston Center
11:44PM 29.9414 -96.3558 89° East 413 475 18,300 -2,040 Descending Houston Center
11:45PM 29.8956 -96.2356 114° Southeast 398 458 16,200 -1,980 Descending Houston Center
11:46PM 29.8503 -96.1228 115° Southeast 399 459 14,300 -2,040 Descending Houston Center
11:47PM 29.8047 -96.0075 114° Southeast 370 426 12,200 -1,800 Descending Houston Center
11:49PM 29.7522 -95.8789 115° Southeast 355 409 10,100 -1,320 Descending Houston Center
11:50PM 29.7175 -95.7944 115° Southeast 298 343 9,200 -1,200 Descending Houston Center
11:50PM 29.6922 -95.7294 114° Southeast 290 334 8,100 -1,560 Descending Houston Center
11:51PM 29.6619 -95.6489 113° Southeast 269 310 6,600 -1,500 Descending Houston Center
11:52PM 29.6469 -95.5761 103° East 249 287 5,300 -1,440 Descending Houston Center